sensor_id;sensor_type;location;lat;lon;timestamp;pressure;altitude;pressure_sealevel;temperature;humidity
73566;BME280;61846;52.970;-3.168;2023-03-19T00:00:31;100239.25;;;7.64;50.41
73566;BME280;61846;52.970;-3.168;2023-03-19T00:02:57;100242.49;;;8.41;48.84
73566;BME280;61846;52.970;-3.168;2023-03-19T00:05:22;100247.47;;;7.47;49.91
73566;BME280;61846;52.970;-3.168;2023-03-19T00:07:48;100252.65;;;7.97;49.57
73566;BME280;61846;52.970;-3.168;2023-03-19T00:10:14;100260.65;;;6.49;51.85
73566;BME280;61846;52.970;-3.168;2023-03-19T00:12:39;100262.63;;;6.22;52.75
73566;BME280;61846;52.970;-3.168;2023-03-19T00:15:05;100265.27;;;6.47;53.19
73566;BME280;61846;52.970;-3.168;2023-03-19T00:17:30;100270.91;;;6.26;53.06
73566;BME280;61846;52.970;-3.168;2023-03-19T00:19:56;100274.43;;;6.98;51.92
73566;BME280;61846;52.970;-3.168;2023-03-19T00:22:21;100277.52;;;7.22;50.86
73566;BME280;61846;52.970;-3.168;2023-03-19T00:24:47;100279.46;;;6.72;51.21
73566;BME280;61846;52.970;-3.168;2023-03-19T00:27:13;100275.25;;;7.39;50.14
73566;BME280;61846;52.970;-3.168;2023-03-19T00:29:38;100271.03;;;6.92;50.75
73566;BME280;61846;52.970;-3.168;2023-03-19T00:32:04;100270.14;;;7.33;49.68
73566;BME280;61846;52.970;-3.168;2023-03-19T00:34:29;100274.42;;;7.79;49.22
73566;BME280;61846;52.970;-3.168;2023-03-19T00:36:54;100271.34;;;7.79;48.51
73566;BME280;61846;52.970;-3.168;2023-03-19T00:39:20;100274.02;;;7.59;48.11
73566;BME280;61846;52.970;-3.168;2023-03-19T00:41:46;100284.76;;;8.35;47.13
73566;BME280;61846;52.970;-3.168;2023-03-19T00:44:11;100289.45;;;7.65;48.51
73566;BME280;61846;52.970;-3.168;2023-03-19T00:46:37;100282.41;;;7.34;48.96
73566;BME280;61846;52.970;-3.168;2023-03-19T00:49:03;100284.15;;;7.66;48.44
73566;BME280;61846;52.970;-3.168;2023-03-19T00:51:28;100289.70;;;7.70;47.93
73566;BME280;61846;52.970;-3.168;2023-03-19T00:53:54;100287.66;;;7.44;48.01
73566;BME280;61846;52.970;-3.168;2023-03-19T00:56:20;100286.86;;;7.96;47.28
73566;BME280;61846;52.970;-3.168;2023-03-19T00:58:46;100280.85;;;7.94;47.46
73566;BME280;61846;52.970;-3.168;2023-03-19T01:01:13;100291.04;;;7.93;48.14
73566;BME280;61846;52.970;-3.168;2023-03-19T01:03:37;100299.01;;;7.78;48.35
73566;BME280;61846;52.970;-3.168;2023-03-19T01:06:03;100295.29;;;7.98;47.47
73566;BME280;61846;52.970;-3.168;2023-03-19T01:08:28;100297.34;;;6.79;49.76
73566;BME280;61846;52.970;-3.168;2023-03-19T01:10:54;100297.63;;;5.92;52.35
73566;BME280;61846;52.970;-3.168;2023-03-19T01:13:19;100305.90;;;5.91;53.03
73566;BME280;61846;52.970;-3.168;2023-03-19T01:15:45;100308.43;;;6.41;52.48
73566;BME280;61846;52.970;-3.168;2023-03-19T01:18:11;100304.18;;;6.34;53.10
73566;BME280;61846;52.970;-3.168;2023-03-19T01:20:38;100301.63;;;6.97;52.18
73566;BME280;61846;52.970;-3.168;2023-03-19T01:23:02;100302.97;;;6.83;51.54
73566;BME280;61846;52.970;-3.168;2023-03-19T01:25:27;100297.08;;;6.96;50.43
73566;BME280;61846;52.970;-3.168;2023-03-19T01:27:53;100294.89;;;6.87;51.13
73566;BME280;61846;52.970;-3.168;2023-03-19T01:30:19;100307.11;;;7.19;50.46
73566;BME280;61846;52.970;-3.168;2023-03-19T01:32:44;100299.67;;;7.84;49.21
73566;BME280;61846;52.970;-3.168;2023-03-19T01:35:10;100295.96;;;7.81;48.58
73566;BME280;61846;52.970;-3.168;2023-03-19T01:37:36;100294.37;;;8.18;47.61
73566;BME280;61846;52.970;-3.168;2023-03-19T01:40:01;100296.84;;;9.12;46.04
73566;BME280;61846;52.970;-3.168;2023-03-19T01:42:26;100303.10;;;8.05;46.84
73566;BME280;61846;52.970;-3.168;2023-03-19T01:44:52;100303.43;;;8.57;46.53
73566;BME280;61846;52.970;-3.168;2023-03-19T01:47:26;100300.69;;;8.81;45.93
73566;BME280;61846;52.970;-3.168;2023-03-19T01:49:46;100304.78;;;8.21;46.66
73566;BME280;61846;52.970;-3.168;2023-03-19T01:52:09;100307.60;;;7.75;47.41
73566;BME280;61846;52.970;-3.168;2023-03-19T01:54:35;100310.07;;;8.70;46.26
73566;BME280;61846;52.970;-3.168;2023-03-19T01:57:04;100319.58;;;7.86;47.56
73566;BME280;61846;52.970;-3.168;2023-03-19T01:59:29;100323.69;;;7.55;48.45
73566;BME280;61846;52.970;-3.168;2023-03-19T02:01:56;100324.75;;;6.77;50.66
73566;BME280;61846;52.970;-3.168;2023-03-19T02:04:18;100323.43;;;7.78;48.27
73566;BME280;61846;52.970;-3.168;2023-03-19T02:06:43;100320.60;;;7.70;48.35
73566;BME280;61846;52.970;-3.168;2023-03-19T02:09:08;100321.40;;;8.13;47.07
73566;BME280;61846;52.970;-3.168;2023-03-19T02:11:35;100321.67;;;8.37;46.50
73566;BME280;61846;52.970;-3.168;2023-03-19T02:13:59;100322.73;;;8.02;47.06
73566;BME280;61846;52.970;-3.168;2023-03-19T02:16:25;100316.99;;;8.73;45.73
73566;BME280;61846;52.970;-3.168;2023-03-19T02:18:51;100317.37;;;9.18;44.93
73566;BME280;61846;52.970;-3.168;2023-03-19T02:21:17;100312.32;;;9.44;43.37
73566;BME280;61846;52.970;-3.168;2023-03-19T02:23:48;100307.53;;;9.59;43.05
73566;BME280;61846;52.970;-3.168;2023-03-19T02:26:08;100320.44;;;8.59;44.78
73566;BME280;61846;52.970;-3.168;2023-03-19T02:28:35;100328.72;;;9.13;44.31
73566;BME280;61846;52.970;-3.168;2023-03-19T02:30:58;100329.55;;;8.93;43.60
73566;BME280;61846;52.970;-3.168;2023-03-19T02:33:24;100322.98;;;9.02;44.26
73566;BME280;61846;52.970;-3.168;2023-03-19T02:35:51;100316.58;;;9.50;42.27
73566;BME280;61846;52.970;-3.168;2023-03-19T02:38:15;100323.90;;;9.47;42.73
73566;BME280;61846;52.970;-3.168;2023-03-19T02:40:46;100331.08;;;9.45;42.98
73566;BME280;61846;52.970;-3.168;2023-03-19T02:43:06;100323.88;;;9.83;41.26
73566;BME280;61846;52.970;-3.168;2023-03-19T02:45:32;100332.61;;;10.18;40.65
73566;BME280;61846;52.970;-3.168;2023-03-19T02:47:58;100335.47;;;9.94;39.64
73566;BME280;61846;52.970;-3.168;2023-03-19T02:50:23;100340.56;;;9.71;40.01
73566;BME280;61846;52.970;-3.168;2023-03-19T02:52:49;100341.79;;;9.83;39.73
73566;BME280;61846;52.970;-3.168;2023-03-19T02:55:14;100344.69;;;9.52;40.83
73566;BME280;61846;52.970;-3.168;2023-03-19T02:57:40;100351.18;;;9.14;40.96
73566;BME280;61846;52.970;-3.168;2023-03-19T03:00:07;100348.28;;;9.04;40.65
73566;BME280;61846;52.970;-3.168;2023-03-19T03:02:31;100353.18;;;8.01;43.71
73566;BME280;61846;52.970;-3.168;2023-03-19T03:04:57;100358.26;;;8.83;41.83
73566;BME280;61846;52.970;-3.168;2023-03-19T03:07:22;100355.01;;;8.60;41.89
73566;BME280;61846;52.970;-3.168;2023-03-19T03:09:48;100353.54;;;9.21;41.37
73566;BME280;61846;52.970;-3.168;2023-03-19T03:12:14;100353.54;;;9.34;41.22
73566;BME280;61846;52.970;-3.168;2023-03-19T03:14:39;100359.77;;;8.76;42.24
73566;BME280;61846;52.970;-3.168;2023-03-19T03:17:05;100362.09;;;9.34;40.61
73566;BME280;61846;52.970;-3.168;2023-03-19T03:19:30;100363.74;;;9.11;41.01
73566;BME280;61846;52.970;-3.168;2023-03-19T03:21:56;100367.91;;;8.68;42.13
73566;BME280;61846;52.970;-3.168;2023-03-19T03:24:21;100369.14;;;9.03;42.46
73566;BME280;61846;52.970;-3.168;2023-03-19T03:26:47;100371.61;;;8.77;42.85
73566;BME280;61846;52.970;-3.168;2023-03-19T03:29:12;100376.93;;;8.67;43.50
73566;BME280;61846;52.970;-3.168;2023-03-19T03:31:38;100371.23;;;9.64;41.76
73566;BME280;61846;52.970;-3.168;2023-03-19T03:34:03;100373.77;;;9.81;41.98
73566;BME280;61846;52.970;-3.168;2023-03-19T03:36:29;100371.31;;;10.37;40.84
73566;BME280;61846;52.970;-3.168;2023-03-19T03:38:55;100370.43;;;9.71;41.42
73566;BME280;61846;52.970;-3.168;2023-03-19T03:41:21;100369.67;;;9.78;41.10
73566;BME280;61846;52.970;-3.168;2023-03-19T03:43:46;100377.74;;;9.54;42.07
73566;BME280;61846;52.970;-3.168;2023-03-19T03:46:11;100376.43;;;8.42;44.17
73566;BME280;61846;52.970;-3.168;2023-03-19T03:48:37;100380.33;;;8.59;43.53
73566;BME280;61846;52.970;-3.168;2023-03-19T03:51:03;100387.74;;;7.97;44.98
73566;BME280;61846;52.970;-3.168;2023-03-19T03:53:28;100391.38;;;8.31;45.33
73566;BME280;61846;52.970;-3.168;2023-03-19T03:55:54;100384.28;;;9.07;44.50
73566;BME280;61846;52.970;-3.168;2023-03-19T03:58:19;100384.37;;;8.88;44.07
73566;BME280;61846;52.970;-3.168;2023-03-19T04:00:45;100381.74;;;9.25;43.20
73566;BME280;61846;52.970;-3.168;2023-03-19T04:03:11;100383.48;;;9.24;44.39
73566;BME280;61846;52.970;-3.168;2023-03-19T04:05:36;100382.24;;;9.17;44.25
73566;BME280;61846;52.970;-3.168;2023-03-19T04:08:02;100379.88;;;9.60;43.77
73566;BME280;61846;52.970;-3.168;2023-03-19T04:10:28;100380.77;;;9.42;44.33
73566;BME280;61846;52.970;-3.168;2023-03-19T04:12:53;100385.10;;;8.53;45.53
73566;BME280;61846;52.970;-3.168;2023-03-19T04:15:19;100391.65;;;9.23;44.33
73566;BME280;61846;52.970;-3.168;2023-03-19T04:17:45;100393.53;;;8.84;44.62
73566;BME280;61846;52.970;-3.168;2023-03-19T04:20:10;100388.72;;;9.57;43.62
73566;BME280;61846;52.970;-3.168;2023-03-19T04:22:35;100392.48;;;8.51;45.93
73566;BME280;61846;52.970;-3.168;2023-03-19T04:25:01;100397.82;;;9.27;45.41
73566;BME280;61846;52.970;-3.168;2023-03-19T04:27:27;100408.05;;;8.28;47.75
73566;BME280;61846;52.970;-3.168;2023-03-19T04:29:52;100406.92;;;9.00;45.63
73566;BME280;61846;52.970;-3.168;2023-03-19T04:32:18;100410.03;;;9.24;45.11
73566;BME280;61846;52.970;-3.168;2023-03-19T04:34:44;100404.17;;;8.95;45.49
73566;BME280;61846;52.970;-3.168;2023-03-19T04:37:10;100416.06;;;7.93;48.74
73566;BME280;61846;52.970;-3.168;2023-03-19T04:39:35;100412.07;;;8.56;47.55
73566;BME280;61846;52.970;-3.168;2023-03-19T04:42:01;100412.66;;;8.93;46.75
73566;BME280;61846;52.970;-3.168;2023-03-19T04:44:26;100412.33;;;8.60;46.51
73566;BME280;61846;52.970;-3.168;2023-03-19T04:46:52;100421.26;;;7.79;49.30
73566;BME280;61846;52.970;-3.168;2023-03-19T04:49:18;100415.90;;;8.34;48.59
73566;BME280;61846;52.970;-3.168;2023-03-19T04:51:43;100421.00;;;7.58;49.54
73566;BME280;61846;52.970;-3.168;2023-03-19T04:54:09;100424.53;;;8.18;48.73
73566;BME280;61846;52.970;-3.168;2023-03-19T04:56:35;100424.82;;;9.09;47.26
73566;BME280;61846;52.970;-3.168;2023-03-19T04:59:00;100429.17;;;8.69;47.55
73566;BME280;61846;52.970;-3.168;2023-03-19T05:01:25;100429.71;;;9.29;46.62
73566;BME280;61846;52.970;-3.168;2023-03-19T05:03:51;100433.82;;;9.46;45.81
73566;BME280;61846;52.970;-3.168;2023-03-19T05:06:17;100435.16;;;8.94;46.67
73566;BME280;61846;52.970;-3.168;2023-03-19T05:08:42;100440.61;;;8.51;47.25
73566;BME280;61846;52.970;-3.168;2023-03-19T05:11:08;100441.28;;;7.69;49.27
73566;BME280;61846;52.970;-3.168;2023-03-19T05:13:33;100444.68;;;8.02;49.13
73566;BME280;61846;52.970;-3.168;2023-03-19T05:15:59;100442.05;;;7.65;50.26
73566;BME280;61846;52.970;-3.168;2023-03-19T05:18:24;100438.70;;;7.75;50.67
73566;BME280;61846;52.970;-3.168;2023-03-19T05:20:50;100438.68;;;8.06;48.88
73566;BME280;61846;52.970;-3.168;2023-03-19T05:23:16;100445.65;;;8.02;49.33
73566;BME280;61846;52.970;-3.168;2023-03-19T05:25:41;100449.62;;;7.10;51.59
73566;BME280;61846;52.970;-3.168;2023-03-19T05:28:07;100449.88;;;6.98;52.55
73566;BME280;61846;52.970;-3.168;2023-03-19T05:30:33;100456.17;;;7.62;51.05
73566;BME280;61846;52.970;-3.168;2023-03-19T05:32:59;100463.40;;;8.08;50.11
73566;BME280;61846;52.970;-3.168;2023-03-19T05:35:24;100468.18;;;7.91;49.97
73566;BME280;61846;52.970;-3.168;2023-03-19T05:37:49;100475.76;;;7.75;50.16
73566;BME280;61846;52.970;-3.168;2023-03-19T05:40:15;100469.43;;;8.13;49.41
73566;BME280;61846;52.970;-3.168;2023-03-19T05:42:41;100477.51;;;5.93;54.54
73566;BME280;61846;52.970;-3.168;2023-03-19T05:45:07;100474.76;;;6.80;53.22
73566;BME280;61846;52.970;-3.168;2023-03-19T05:47:32;100475.96;;;6.72;53.52
73566;BME280;61846;52.970;-3.168;2023-03-19T05:49:58;100481.44;;;6.90;52.56
73566;BME280;61846;52.970;-3.168;2023-03-19T05:52:24;100480.91;;;6.91;51.92
73566;BME280;61846;52.970;-3.168;2023-03-19T05:54:49;100490.09;;;7.32;51.73
73566;BME280;61846;52.970;-3.168;2023-03-19T05:57:15;100489.82;;;7.65;50.84
73566;BME280;61846;52.970;-3.168;2023-03-19T05:59:41;100491.74;;;8.69;49.02
73566;BME280;61846;52.970;-3.168;2023-03-19T06:02:05;100496.00;;;8.70;48.59
73566;BME280;61846;52.970;-3.168;2023-03-19T06:04:30;100501.51;;;8.20;49.75
73566;BME280;61846;52.970;-3.168;2023-03-19T06:06:56;100500.64;;;8.02;51.27
73566;BME280;61846;52.970;-3.168;2023-03-19T06:09:21;100501.52;;;8.23;50.80
73566;BME280;61846;52.970;-3.168;2023-03-19T06:11:47;100498.85;;;8.29;50.50
73566;BME280;61846;52.970;-3.168;2023-03-19T06:14:13;100501.92;;;7.55;52.37
73566;BME280;61846;52.970;-3.168;2023-03-19T06:16:38;100499.35;;;7.45;51.94
73566;BME280;61846;52.970;-3.168;2023-03-19T06:19:04;100496.11;;;7.51;51.92
73566;BME280;61846;52.970;-3.168;2023-03-19T06:21:30;100492.56;;;7.20;53.47
73566;BME280;61846;52.970;-3.168;2023-03-19T06:23:55;100502.51;;;7.75;52.02
73566;BME280;61846;52.970;-3.168;2023-03-19T06:26:21;100506.60;;;7.61;53.00
73566;BME280;61846;52.970;-3.168;2023-03-19T06:28:47;100512.85;;;6.86;54.87
73566;BME280;61846;52.970;-3.168;2023-03-19T06:31:13;100518.82;;;7.79;52.87
73566;BME280;61846;52.970;-3.168;2023-03-19T06:33:38;100513.24;;;7.36;54.13
73566;BME280;61846;52.970;-3.168;2023-03-19T06:36:04;100506.71;;;7.02;53.38
73566;BME280;61846;52.970;-3.168;2023-03-19T06:38:29;100505.40;;;6.72;54.20
73566;BME280;61846;52.970;-3.168;2023-03-19T06:40:55;100512.24;;;7.24;53.06
73566;BME280;61846;52.970;-3.168;2023-03-19T06:43:21;100515.94;;;7.47;52.54
73566;BME280;61846;52.970;-3.168;2023-03-19T06:45:46;100523.53;;;7.37;53.14
73566;BME280;61846;52.970;-3.168;2023-03-19T06:48:12;100527.54;;;6.51;55.08
73566;BME280;61846;52.970;-3.168;2023-03-19T06:50:38;100527.90;;;6.27;55.35
73566;BME280;61846;52.970;-3.168;2023-03-19T06:53:03;100529.70;;;6.78;53.65
73566;BME280;61846;52.970;-3.168;2023-03-19T06:55:28;100525.62;;;7.44;51.32
73566;BME280;61846;52.970;-3.168;2023-03-19T06:57:54;100525.84;;;7.27;51.94
73566;BME280;61846;52.970;-3.168;2023-03-19T07:00:20;100522.91;;;7.97;50.13
73566;BME280;61846;52.970;-3.168;2023-03-19T07:02:45;100525.64;;;8.53;49.25
73566;BME280;61846;52.970;-3.168;2023-03-19T07:05:11;100529.17;;;9.23;47.96
73566;BME280;61846;52.970;-3.168;2023-03-19T07:07:37;100539.02;;;8.56;48.91
73566;BME280;61846;52.970;-3.168;2023-03-19T07:10:03;100545.28;;;8.89;46.60
73566;BME280;61846;52.970;-3.168;2023-03-19T07:12:28;100548.45;;;8.21;47.41
73566;BME280;61846;52.970;-3.168;2023-03-19T07:14:54;100550.40;;;8.58;47.24
73566;BME280;61846;52.970;-3.168;2023-03-19T07:17:19;100551.14;;;9.33;46.97
73566;BME280;61846;52.970;-3.168;2023-03-19T07:19:45;100556.97;;;9.88;46.09
73566;BME280;61846;52.970;-3.168;2023-03-19T07:22:10;100569.01;;;10.23;45.01
73566;BME280;61846;52.970;-3.168;2023-03-19T07:24:36;100566.04;;;10.09;45.08
73566;BME280;61846;52.970;-3.168;2023-03-19T07:27:02;100564.16;;;10.86;44.11
73566;BME280;61846;52.970;-3.168;2023-03-19T07:29:27;100575.72;;;9.07;46.32
73566;BME280;61846;52.970;-3.168;2023-03-19T07:31:53;100571.80;;;10.59;43.88
73566;BME280;61846;52.970;-3.168;2023-03-19T07:34:19;100573.02;;;9.60;44.33
73566;BME280;61846;52.970;-3.168;2023-03-19T07:36:44;100576.50;;;9.74;44.77
73566;BME280;61846;52.970;-3.168;2023-03-19T07:39:10;100577.06;;;9.50;45.34
73566;BME280;61846;52.970;-3.168;2023-03-19T07:41:35;100581.99;;;9.09;46.42
73566;BME280;61846;52.970;-3.168;2023-03-19T07:44:01;100594.50;;;9.15;46.85
73566;BME280;61846;52.970;-3.168;2023-03-19T07:46:27;100596.56;;;8.59;46.79
73566;BME280;61846;52.970;-3.168;2023-03-19T07:48:52;100600.48;;;7.88;48.65
73566;BME280;61846;52.970;-3.168;2023-03-19T07:51:18;100609.34;;;8.39;48.65
73566;BME280;61846;52.970;-3.168;2023-03-19T07:53:44;100610.71;;;8.68;48.03
73566;BME280;61846;52.970;-3.168;2023-03-19T07:56:09;100603.55;;;8.38;48.29
73566;BME280;61846;52.970;-3.168;2023-03-19T07:58:34;100606.31;;;8.50;48.49
73566;BME280;61846;52.970;-3.168;2023-03-19T08:01:00;100604.28;;;7.21;51.80
73566;BME280;61846;52.970;-3.168;2023-03-19T08:03:25;100597.77;;;7.57;50.52
73566;BME280;61846;52.970;-3.168;2023-03-19T08:05:51;100599.09;;;7.48;50.81
73566;BME280;61846;52.970;-3.168;2023-03-19T08:08:17;100601.11;;;8.21;49.47
73566;BME280;61846;52.970;-3.168;2023-03-19T08:10:42;100605.19;;;8.01;49.23
73566;BME280;61846;52.970;-3.168;2023-03-19T08:13:08;100612.72;;;8.38;48.41
73566;BME280;61846;52.970;-3.168;2023-03-19T08:15:34;100619.92;;;7.36;50.64
73566;BME280;61846;52.970;-3.168;2023-03-19T08:18:00;100624.05;;;7.10;51.57
73566;BME280;61846;52.970;-3.168;2023-03-19T08:20:25;100626.55;;;8.10;50.52
73566;BME280;61846;52.970;-3.168;2023-03-19T08:22:51;100626.15;;;8.56;49.10
73566;BME280;61846;52.970;-3.168;2023-03-19T08:25:17;100631.40;;;8.50;49.05
73566;BME280;61846;52.970;-3.168;2023-03-19T08:27:42;100628.26;;;7.89;50.20
73566;BME280;61846;52.970;-3.168;2023-03-19T08:30:09;100632.06;;;8.15;49.00
73566;BME280;61846;52.970;-3.168;2023-03-19T08:32:33;100636.71;;;8.07;49.34
73566;BME280;61846;52.970;-3.168;2023-03-19T08:34:59;100637.27;;;7.55;50.96
73566;BME280;61846;52.970;-3.168;2023-03-19T08:37:25;100638.48;;;8.10;50.52
73566;BME280;61846;52.970;-3.168;2023-03-19T08:39:50;100634.63;;;7.41;50.65
73566;BME280;61846;52.970;-3.168;2023-03-19T08:42:16;100636.07;;;7.17;50.37
73566;BME280;61846;52.970;-3.168;2023-03-19T08:44:42;100647.14;;;7.07;52.93
73566;BME280;61846;52.970;-3.168;2023-03-19T08:47:07;100657.11;;;6.90;52.07
73566;BME280;61846;52.970;-3.168;2023-03-19T08:49:33;100655.56;;;7.07;52.59
73566;BME280;61846;52.970;-3.168;2023-03-19T08:51:59;100650.46;;;8.13;50.40
73566;BME280;61846;52.970;-3.168;2023-03-19T08:54:24;100644.30;;;8.22;49.83
73566;BME280;61846;52.970;-3.168;2023-03-19T08:56:50;100644.87;;;8.51;48.70
73566;BME280;61846;52.970;-3.168;2023-03-19T08:59:16;100655.08;;;7.58;50.34
73566;BME280;61846;52.970;-3.168;2023-03-19T09:01:41;100647.62;;;8.33;48.83
73566;BME280;61846;52.970;-3.168;2023-03-19T09:04:07;100647.93;;;7.52;50.23
73566;BME280;61846;52.970;-3.168;2023-03-19T09:06:32;100646.61;;;7.70;49.91
73566;BME280;61846;52.970;-3.168;2023-03-19T09:08:58;100658.49;;;8.21;49.49
73566;BME280;61846;52.970;-3.168;2023-03-19T09:11:24;100661.88;;;7.54;48.83
73566;BME280;61846;52.970;-3.168;2023-03-19T09:13:49;100674.78;;;7.04;49.98
73566;BME280;61846;52.970;-3.168;2023-03-19T09:16:15;100678.37;;;7.05;49.38
73566;BME280;61846;52.970;-3.168;2023-03-19T09:18:40;100681.94;;;7.32;50.63
73566;BME280;61846;52.970;-3.168;2023-03-19T09:21:06;100683.16;;;7.12;49.60
73566;BME280;61846;52.970;-3.168;2023-03-19T09:23:31;100677.61;;;6.81;49.31
73566;BME280;61846;52.970;-3.168;2023-03-19T09:25:57;100681.94;;;6.55;48.47
73566;BME280;61846;52.970;-3.168;2023-03-19T09:28:23;100685.45;;;7.27;49.11
73566;BME280;61846;52.970;-3.168;2023-03-19T09:30:49;100686.38;;;7.19;47.72
73566;BME280;61846;52.970;-3.168;2023-03-19T09:33:15;100685.47;;;6.86;47.89
73566;BME280;61846;52.970;-3.168;2023-03-19T09:35:39;100679.07;;;7.40;47.36
73566;BME280;61846;52.970;-3.168;2023-03-19T09:38:05;100681.19;;;8.17;46.54
73566;BME280;61846;52.970;-3.168;2023-03-19T09:40:34;100682.77;;;8.07;46.11
73566;BME280;61846;52.970;-3.168;2023-03-19T09:43:05;100688.96;;;7.88;47.02
73566;BME280;61846;52.970;-3.168;2023-03-19T09:45:22;100689.69;;;8.53;46.00
73566;BME280;61846;52.970;-3.168;2023-03-19T09:47:52;100690.99;;;8.62;46.34
73566;BME280;61846;52.970;-3.168;2023-03-19T09:50:14;100695.24;;;8.53;44.94
73566;BME280;61846;52.970;-3.168;2023-03-19T09:52:41;100706.43;;;8.39;44.30
73566;BME280;61846;52.970;-3.168;2023-03-19T09:55:12;100708.69;;;8.00;44.55
73566;BME280;61846;52.970;-3.168;2023-03-19T09:57:30;100702.42;;;9.01;43.97
73566;BME280;61846;52.970;-3.168;2023-03-19T09:59:55;100712.55;;;8.07;45.51
73566;BME280;61846;52.970;-3.168;2023-03-19T10:02:30;100724.58;;;8.90;43.46
73566;BME280;61846;52.970;-3.168;2023-03-19T10:04:54;100725.82;;;7.96;44.49
73566;BME280;61846;52.970;-3.168;2023-03-19T10:07:24;100719.32;;;9.39;42.22
73566;BME280;61846;52.970;-3.168;2023-03-19T10:09:45;100718.22;;;9.65;41.28
73566;BME280;61846;52.970;-3.168;2023-03-19T10:12:14;100724.00;;;9.05;42.14
73566;BME280;61846;52.970;-3.168;2023-03-19T10:14:40;100743.57;;;9.19;41.41
73566;BME280;61846;52.970;-3.168;2023-03-19T10:16:57;100749.13;;;9.32;40.81
73566;BME280;61846;52.970;-3.168;2023-03-19T10:19:23;100749.10;;;9.57;41.70
73566;BME280;61846;52.970;-3.168;2023-03-19T10:21:48;100747.16;;;9.30;42.61
73566;BME280;61846;52.970;-3.168;2023-03-19T10:24:13;100745.21;;;9.29;42.43
73566;BME280;61846;52.970;-3.168;2023-03-19T10:26:37;100744.44;;;9.29;43.51
73566;BME280;61846;52.970;-3.168;2023-03-19T10:29:05;100749.14;;;10.34;40.71
73566;BME280;61846;52.970;-3.168;2023-03-19T10:31:30;100752.12;;;9.61;40.87
73566;BME280;61846;52.970;-3.168;2023-03-19T10:34:05;100744.38;;;9.18;44.98
73566;BME280;61846;52.970;-3.168;2023-03-19T10:36:20;100743.12;;;10.03;41.26
73566;BME280;61846;52.970;-3.168;2023-03-19T10:38:45;100744.50;;;10.55;41.29
73566;BME280;61846;52.970;-3.168;2023-03-19T10:41:22;100740.68;;;10.22;41.02
73566;BME280;61846;52.970;-3.168;2023-03-19T10:43:39;100742.32;;;10.13;41.22
73566;BME280;61846;52.970;-3.168;2023-03-19T10:46:02;100737.62;;;10.84;39.96
73566;BME280;61846;52.970;-3.168;2023-03-19T10:48:27;100739.89;;;11.13;40.54
73566;BME280;61846;52.970;-3.168;2023-03-19T10:50:56;100740.24;;;11.02;40.05
73566;BME280;61846;52.970;-3.168;2023-03-19T10:53:28;100736.22;;;10.89;38.31
73566;BME280;61846;52.970;-3.168;2023-03-19T10:55:46;100731.00;;;11.80;40.39
73566;BME280;61846;52.970;-3.168;2023-03-19T10:58:16;100726.02;;;11.43;40.84
73566;BME280;61846;52.970;-3.168;2023-03-19T11:00:35;100726.13;;;10.88;39.80
73566;BME280;61846;52.970;-3.168;2023-03-19T11:03:01;100728.37;;;11.06;39.18
73566;BME280;61846;52.970;-3.168;2023-03-19T11:05:27;100722.08;;;10.64;40.31
73566;BME280;61846;52.970;-3.168;2023-03-19T11:07:55;100720.41;;;10.60;40.93
73566;BME280;61846;52.970;-3.168;2023-03-19T11:10:18;100717.93;;;10.72;40.81
73566;BME280;61846;52.970;-3.168;2023-03-19T11:12:47;100713.25;;;11.82;40.12
73566;BME280;61846;52.970;-3.168;2023-03-19T11:15:15;100711.55;;;12.66;35.31
73566;BME280;61846;52.970;-3.168;2023-03-19T11:17:37;100710.26;;;13.01;37.30
73566;BME280;61846;52.970;-3.168;2023-03-19T11:20:12;100708.27;;;12.40;37.67
73566;BME280;61846;52.970;-3.168;2023-03-19T11:22:27;100707.98;;;12.32;36.40
73566;BME280;61846;52.970;-3.168;2023-03-19T11:24:53;100711.63;;;12.90;35.34
73566;BME280;61846;52.970;-3.168;2023-03-19T11:27:16;100712.45;;;13.02;35.20
73566;BME280;61846;52.970;-3.168;2023-03-19T11:29:43;100714.00;;;12.94;34.07
73566;BME280;61846;52.970;-3.168;2023-03-19T11:32:18;100713.72;;;13.03;34.14
73566;BME280;61846;52.970;-3.168;2023-03-19T11:34:38;100718.26;;;12.74;35.19
73566;BME280;61846;52.970;-3.168;2023-03-19T11:37:04;100720.42;;;12.61;35.07
73566;BME280;61846;52.970;-3.168;2023-03-19T11:39:27;100719.27;;;12.15;35.49
73566;BME280;61846;52.970;-3.168;2023-03-19T11:42:02;100718.41;;;12.42;34.39
73566;BME280;61846;52.970;-3.168;2023-03-19T11:44:17;100712.48;;;12.37;34.50
73566;BME280;61846;52.970;-3.168;2023-03-19T11:46:43;100711.07;;;12.78;35.37
73566;BME280;61846;52.970;-3.168;2023-03-19T11:49:25;100716.49;;;13.41;35.71
73566;BME280;61846;52.970;-3.168;2023-03-19T11:51:36;100718.63;;;13.47;34.99
73566;BME280;61846;52.970;-3.168;2023-03-19T11:54:03;100712.68;;;14.24;32.46
73566;BME280;61846;52.970;-3.168;2023-03-19T11:56:30;100704.53;;;13.19;32.43
73566;BME280;61846;52.970;-3.168;2023-03-19T11:59:02;100702.77;;;14.75;31.57
73566;BME280;61846;52.970;-3.168;2023-03-19T12:01:21;100689.53;;;13.05;33.72
73566;BME280;61846;52.970;-3.168;2023-03-19T12:03:56;100710.26;;;13.78;33.49
73566;BME280;61846;52.970;-3.168;2023-03-19T12:06:09;100702.04;;;14.39;33.87
73566;BME280;61846;52.970;-3.168;2023-03-19T12:08:33;100706.21;;;13.78;33.13
73566;BME280;61846;52.970;-3.168;2023-03-19T12:11:02;100710.91;;;14.46;33.49
73566;BME280;61846;52.970;-3.168;2023-03-19T12:13:30;100702.27;;;14.51;31.60
73566;BME280;61846;52.970;-3.168;2023-03-19T12:15:53;100700.62;;;14.48;32.88
73566;BME280;61846;52.970;-3.168;2023-03-19T12:18:18;100697.38;;;15.23;30.98
73566;BME280;61846;52.970;-3.168;2023-03-19T12:20:45;100700.47;;;15.26;31.66
73566;BME280;61846;52.970;-3.168;2023-03-19T12:23:10;100705.74;;;14.27;31.23
73566;BME280;61846;52.970;-3.168;2023-03-19T12:25:36;100706.32;;;14.83;32.08
73566;BME280;61846;52.970;-3.168;2023-03-19T12:27:54;100703.97;;;14.75;31.02
73566;BME280;61846;52.970;-3.168;2023-03-19T12:30:25;100706.13;;;14.03;32.80
73566;BME280;61846;52.970;-3.168;2023-03-19T12:32:55;100701.68;;;15.00;31.52
73566;BME280;61846;52.970;-3.168;2023-03-19T12:35:12;100708.59;;;14.25;31.81
73566;BME280;61846;52.970;-3.168;2023-03-19T12:37:38;100707.66;;;15.08;31.40